Main page
METAR-TAF:

METAR-TAF

Airports :

RAF Waddington

Waddington, England

latitude: 53-10N, longitude: 000-31W, elevation: 68 m

Current weather observation

The report was made 24 minutes ago, at 21:50 UTC
Wind 4 kt from the West
Temperature 1°C
Humidity 93%
Pressure 996 hPa
Visibility: 5000 m
Few clouds at a height of 1800 ft
mist

METAR: EGXW 222150Z 26004KT 5000 BR FEW018 01/00 Q0996 WHT

Time: 22:14 (22:14 UTC)

Forecast

The report was made 39 minutes ago, at 21:35 UTC
Forecast valid from 22 at 21 UTC to 23 at 15 UTC
Wind 5 kt from the West/Southwest
Visibility: 5000 m
Few clouds at a height of 1800 ft
mist
Becoming
from 22 at 21 UTC to 22 at 24 UTC
Visibility 10 km or more
Probability 30%
from 22 at 21 UTC to 23 at 01 UTC
Broken clouds at a height of 1800 ft

TAF: EGXW 222135Z 2221/2315 24005KT 5000 BR FEW018 BECMG 2221/2224 9999 NSW PROB30 2221/2301 BKN018

Weather observations and forecasts of more than 4000 airports (METAR and TAF reports).

The available stations are represented by yellow and red dots on the map.

Hover mouse over dot to see the name of the station.

Then click to see weather observations and forecasts.

To change the map : click on the green buttons with a black cross to zoom in, on the green button with a dash to zoom out, or on the green arrows for adjacent maps.


METAR-TAF: